sensor_id;sensor_type;location;lat;lon;timestamp;P1;durP1;ratioP1;P2;durP2;ratioP2
66587;SDS011;53446;50.076;8.198;2023-09-30T00:00:03;158.30;;;95.30;;
66587;SDS011;53446;50.076;8.198;2023-09-30T00:02:05;164.03;;;96.10;;
66587;SDS011;53446;50.076;8.198;2023-09-30T00:04:05;155.38;;;94.25;;
66587;SDS011;53446;50.076;8.198;2023-09-30T00:06:07;155.30;;;93.73;;
66587;SDS011;53446;50.076;8.198;2023-09-30T00:08:07;157.98;;;94.47;;
66587;SDS011;53446;50.076;8.198;2023-09-30T00:10:07;158.77;;;95.22;;
66587;SDS011;53446;50.076;8.198;2023-09-30T00:12:08;157.67;;;95.33;;
66587;SDS011;53446;50.076;8.198;2023-09-30T00:14:08;162.87;;;94.73;;
66587;SDS011;53446;50.076;8.198;2023-09-30T00:16:08;159.53;;;96.00;;
66587;SDS011;53446;50.076;8.198;2023-09-30T00:18:09;157.30;;;94.50;;
66587;SDS011;53446;50.076;8.198;2023-09-30T00:20:09;157.57;;;95.23;;
66587;SDS011;53446;50.076;8.198;2023-09-30T00:22:10;158.13;;;95.15;;
66587;SDS011;53446;50.076;8.198;2023-09-30T00:24:10;161.17;;;95.43;;
66587;SDS011;53446;50.076;8.198;2023-09-30T00:26:10;161.03;;;96.40;;
66587;SDS011;53446;50.076;8.198;2023-09-30T00:28:11;160.83;;;96.67;;
66587;SDS011;53446;50.076;8.198;2023-09-30T00:30:11;161.03;;;95.47;;
66587;SDS011;53446;50.076;8.198;2023-09-30T00:32:11;159.30;;;96.13;;
66587;SDS011;53446;50.076;8.198;2023-09-30T00:34:12;162.85;;;98.03;;
66587;SDS011;53446;50.076;8.198;2023-09-30T00:36:13;162.73;;;97.37;;
66587;SDS011;53446;50.076;8.198;2023-09-30T00:38:13;167.77;;;104.82;;
66587;SDS011;53446;50.076;8.198;2023-09-30T00:40:14;161.77;;;97.97;;
66587;SDS011;53446;50.076;8.198;2023-09-30T00:42:15;156.83;;;95.90;;
66587;SDS011;53446;50.076;8.198;2023-09-30T00:44:15;162.10;;;97.22;;
66587;SDS011;53446;50.076;8.198;2023-09-30T00:46:35;166.25;;;97.88;;
66587;SDS011;53446;50.076;8.198;2023-09-30T00:48:36;169.60;;;99.45;;
66587;SDS011;53446;50.076;8.198;2023-09-30T00:50:37;171.93;;;99.72;;
66587;SDS011;53446;50.076;8.198;2023-09-30T00:52:38;170.13;;;98.63;;
66587;SDS011;53446;50.076;8.198;2023-09-30T00:54:38;165.57;;;98.05;;
66587;SDS011;53446;50.076;8.198;2023-09-30T00:56:45;166.02;;;97.20;;
66587;SDS011;53446;50.076;8.198;2023-09-30T00:58:47;172.20;;;100.63;;
66587;SDS011;53446;50.076;8.198;2023-09-30T01:00:48;168.40;;;98.88;;
66587;SDS011;53446;50.076;8.198;2023-09-30T01:02:48;163.67;;;97.60;;
66587;SDS011;53446;50.076;8.198;2023-09-30T01:04:49;163.10;;;97.30;;
66587;SDS011;53446;50.076;8.198;2023-09-30T01:06:50;166.90;;;97.47;;
66587;SDS011;53446;50.076;8.198;2023-09-30T01:08:50;168.43;;;98.33;;
66587;SDS011;53446;50.076;8.198;2023-09-30T01:10:51;173.43;;;98.82;;
66587;SDS011;53446;50.076;8.198;2023-09-30T01:12:51;176.80;;;101.57;;
66587;SDS011;53446;50.076;8.198;2023-09-30T01:14:56;181.27;;;103.93;;
66587;SDS011;53446;50.076;8.198;2023-09-30T01:16:57;180.38;;;103.65;;
66587;SDS011;53446;50.076;8.198;2023-09-30T01:18:58;182.68;;;103.82;;
66587;SDS011;53446;50.076;8.198;2023-09-30T01:21:00;179.43;;;103.20;;
66587;SDS011;53446;50.076;8.198;2023-09-30T01:23:03;174.30;;;101.63;;
66587;SDS011;53446;50.076;8.198;2023-09-30T01:25:04;175.50;;;101.20;;
66587;SDS011;53446;50.076;8.198;2023-09-30T01:27:04;180.73;;;102.13;;
66587;SDS011;53446;50.076;8.198;2023-09-30T01:29:05;176.83;;;101.40;;
66587;SDS011;53446;50.076;8.198;2023-09-30T01:31:05;182.88;;;103.55;;
66587;SDS011;53446;50.076;8.198;2023-09-30T01:33:05;181.43;;;103.40;;
66587;SDS011;53446;50.076;8.198;2023-09-30T01:35:07;178.95;;;102.88;;
66587;SDS011;53446;50.076;8.198;2023-09-30T01:37:08;184.87;;;104.03;;
66587;SDS011;53446;50.076;8.198;2023-09-30T01:39:11;185.20;;;105.37;;
66587;SDS011;53446;50.076;8.198;2023-09-30T01:41:12;186.73;;;104.75;;
66587;SDS011;53446;50.076;8.198;2023-09-30T01:43:12;188.07;;;106.90;;
66587;SDS011;53446;50.076;8.198;2023-09-30T01:45:13;189.05;;;106.20;;
66587;SDS011;53446;50.076;8.198;2023-09-30T01:47:14;188.18;;;105.32;;
66587;SDS011;53446;50.076;8.198;2023-09-30T01:49:14;189.07;;;105.10;;
66587;SDS011;53446;50.076;8.198;2023-09-30T01:51:15;188.63;;;105.73;;
66587;SDS011;53446;50.076;8.198;2023-09-30T01:53:15;196.10;;;106.63;;
66587;SDS011;53446;50.076;8.198;2023-09-30T01:55:15;193.60;;;106.70;;
66587;SDS011;53446;50.076;8.198;2023-09-30T01:57:16;193.00;;;108.93;;
66587;SDS011;53446;50.076;8.198;2023-09-30T01:59:16;197.68;;;108.78;;
66587;SDS011;53446;50.076;8.198;2023-09-30T02:01:17;196.88;;;108.57;;
66587;SDS011;53446;50.076;8.198;2023-09-30T02:03:17;197.60;;;108.20;;
66587;SDS011;53446;50.076;8.198;2023-09-30T02:05:17;194.67;;;108.73;;
66587;SDS011;53446;50.076;8.198;2023-09-30T02:07:18;199.10;;;109.75;;
66587;SDS011;53446;50.076;8.198;2023-09-30T02:09:19;199.97;;;109.97;;
66587;SDS011;53446;50.076;8.198;2023-09-30T02:11:19;205.10;;;109.93;;
66587;SDS011;53446;50.076;8.198;2023-09-30T02:13:19;203.07;;;109.50;;
66587;SDS011;53446;50.076;8.198;2023-09-30T02:15:20;200.33;;;109.43;;
66587;SDS011;53446;50.076;8.198;2023-09-30T02:17:20;205.95;;;108.82;;
66587;SDS011;53446;50.076;8.198;2023-09-30T02:19:20;204.97;;;109.97;;
66587;SDS011;53446;50.076;8.198;2023-09-30T02:21:21;201.13;;;110.53;;
66587;SDS011;53446;50.076;8.198;2023-09-30T02:23:22;199.27;;;109.43;;
66587;SDS011;53446;50.076;8.198;2023-09-30T02:25:23;197.40;;;108.80;;
66587;SDS011;53446;50.076;8.198;2023-09-30T02:27:23;200.60;;;109.67;;
66587;SDS011;53446;50.076;8.198;2023-09-30T02:29:24;203.33;;;109.70;;
66587;SDS011;53446;50.076;8.198;2023-09-30T02:31:24;203.10;;;109.43;;
66587;SDS011;53446;50.076;8.198;2023-09-30T02:33:24;202.80;;;109.70;;
66587;SDS011;53446;50.076;8.198;2023-09-30T02:35:26;201.75;;;110.90;;
66587;SDS011;53446;50.076;8.198;2023-09-30T02:37:26;207.33;;;110.90;;
66587;SDS011;53446;50.076;8.198;2023-09-30T02:39:26;206.50;;;110.10;;
66587;SDS011;53446;50.076;8.198;2023-09-30T02:41:26;202.40;;;110.67;;
66587;SDS011;53446;50.076;8.198;2023-09-30T02:43:27;204.20;;;112.03;;
66587;SDS011;53446;50.076;8.198;2023-09-30T02:45:27;209.80;;;115.95;;
66587;SDS011;53446;50.076;8.198;2023-09-30T02:47:28;204.80;;;110.07;;
66587;SDS011;53446;50.076;8.198;2023-09-30T02:49:28;205.27;;;110.27;;
66587;SDS011;53446;50.076;8.198;2023-09-30T02:51:28;201.57;;;108.77;;
66587;SDS011;53446;50.076;8.198;2023-09-30T02:53:30;206.30;;;111.30;;
66587;SDS011;53446;50.076;8.198;2023-09-30T02:55:30;203.70;;;109.30;;
66587;SDS011;53446;50.076;8.198;2023-09-30T02:57:31;208.93;;;110.60;;
66587;SDS011;53446;50.076;8.198;2023-09-30T02:59:31;208.00;;;111.90;;
66587;SDS011;53446;50.076;8.198;2023-09-30T03:01:32;208.53;;;110.87;;
66587;SDS011;53446;50.076;8.198;2023-09-30T03:03:32;217.20;;;117.67;;
66587;SDS011;53446;50.076;8.198;2023-09-30T03:05:33;208.18;;;111.13;;
66587;SDS011;53446;50.076;8.198;2023-09-30T03:07:34;210.50;;;110.00;;
66587;SDS011;53446;50.076;8.198;2023-09-30T03:09:34;209.93;;;111.15;;
66587;SDS011;53446;50.076;8.198;2023-09-30T03:11:35;209.60;;;112.15;;
66587;SDS011;53446;50.076;8.198;2023-09-30T03:13:36;208.90;;;111.13;;
66587;SDS011;53446;50.076;8.198;2023-09-30T03:15:37;210.65;;;112.18;;
66587;SDS011;53446;50.076;8.198;2023-09-30T03:17:38;220.90;;;118.32;;
66587;SDS011;53446;50.076;8.198;2023-09-30T03:19:39;212.32;;;110.93;;
66587;SDS011;53446;50.076;8.198;2023-09-30T03:21:40;209.23;;;110.97;;
66587;SDS011;53446;50.076;8.198;2023-09-30T03:23:40;211.87;;;110.83;;
66587;SDS011;53446;50.076;8.198;2023-09-30T03:25:41;216.77;;;111.65;;
66587;SDS011;53446;50.076;8.198;2023-09-30T03:27:42;212.70;;;108.40;;
66587;SDS011;53446;50.076;8.198;2023-09-30T03:29:43;213.60;;;112.10;;
66587;SDS011;53446;50.076;8.198;2023-09-30T03:31:43;211.90;;;110.97;;
66587;SDS011;53446;50.076;8.198;2023-09-30T03:33:43;212.05;;;110.43;;
66587;SDS011;53446;50.076;8.198;2023-09-30T03:35:44;212.77;;;112.55;;
66587;SDS011;53446;50.076;8.198;2023-09-30T03:37:45;218.23;;;113.37;;
66587;SDS011;53446;50.076;8.198;2023-09-30T03:39:46;216.38;;;113.03;;
66587;SDS011;53446;50.076;8.198;2023-09-30T03:41:49;218.83;;;110.13;;
66587;SDS011;53446;50.076;8.198;2023-09-30T03:43:49;218.02;;;108.72;;
66587;SDS011;53446;50.076;8.198;2023-09-30T03:45:49;219.32;;;110.32;;
66587;SDS011;53446;50.076;8.198;2023-09-30T03:47:50;221.17;;;111.43;;
66587;SDS011;53446;50.076;8.198;2023-09-30T03:49:52;220.98;;;110.55;;
66587;SDS011;53446;50.076;8.198;2023-09-30T03:51:53;224.57;;;110.83;;
66587;SDS011;53446;50.076;8.198;2023-09-30T03:53:54;222.45;;;110.80;;
66587;SDS011;53446;50.076;8.198;2023-09-30T03:55:55;226.40;;;111.67;;
66587;SDS011;53446;50.076;8.198;2023-09-30T03:57:55;230.80;;;112.57;;
66587;SDS011;53446;50.076;8.198;2023-09-30T03:59:55;225.07;;;111.22;;
66587;SDS011;53446;50.076;8.198;2023-09-30T04:01:56;226.27;;;111.77;;
66587;SDS011;53446;50.076;8.198;2023-09-30T04:03:58;227.38;;;111.68;;
66587;SDS011;53446;50.076;8.198;2023-09-30T04:05:58;227.90;;;109.47;;
66587;SDS011;53446;50.076;8.198;2023-09-30T04:07:58;230.50;;;111.27;;
66587;SDS011;53446;50.076;8.198;2023-09-30T04:09:59;231.00;;;111.37;;
66587;SDS011;53446;50.076;8.198;2023-09-30T04:12:01;237.20;;;113.50;;
66587;SDS011;53446;50.076;8.198;2023-09-30T04:14:01;231.43;;;111.53;;
66587;SDS011;53446;50.076;8.198;2023-09-30T04:16:01;241.47;;;113.27;;
66587;SDS011;53446;50.076;8.198;2023-09-30T04:18:03;236.82;;;112.57;;
66587;SDS011;53446;50.076;8.198;2023-09-30T04:20:05;235.60;;;113.07;;
66587;SDS011;53446;50.076;8.198;2023-09-30T04:22:09;236.18;;;114.82;;
66587;SDS011;53446;50.076;8.198;2023-09-30T04:24:10;235.93;;;114.90;;
66587;SDS011;53446;50.076;8.198;2023-09-30T04:26:10;235.60;;;117.73;;
66587;SDS011;53446;50.076;8.198;2023-09-30T04:28:10;234.83;;;113.27;;
66587;SDS011;53446;50.076;8.198;2023-09-30T04:30:11;234.77;;;114.85;;
66587;SDS011;53446;50.076;8.198;2023-09-30T04:32:12;234.77;;;114.10;;
66587;SDS011;53446;50.076;8.198;2023-09-30T04:34:12;232.23;;;114.77;;
66587;SDS011;53446;50.076;8.198;2023-09-30T04:36:13;232.85;;;116.47;;
66587;SDS011;53446;50.076;8.198;2023-09-30T04:38:13;230.60;;;116.00;;
66587;SDS011;53446;50.076;8.198;2023-09-30T04:40:14;236.93;;;118.23;;
66587;SDS011;53446;50.076;8.198;2023-09-30T04:42:19;237.23;;;117.28;;
66587;SDS011;53446;50.076;8.198;2023-09-30T04:44:20;237.60;;;117.53;;
66587;SDS011;53446;50.076;8.198;2023-09-30T04:46:21;237.65;;;118.53;;
66587;SDS011;53446;50.076;8.198;2023-09-30T04:48:23;237.30;;;119.13;;
66587;SDS011;53446;50.076;8.198;2023-09-30T04:50:23;240.60;;;119.68;;
66587;SDS011;53446;50.076;8.198;2023-09-30T04:52:24;242.97;;;119.83;;
66587;SDS011;53446;50.076;8.198;2023-09-30T04:54:27;242.20;;;120.32;;
66587;SDS011;53446;50.076;8.198;2023-09-30T04:56:29;241.15;;;119.35;;
66587;SDS011;53446;50.076;8.198;2023-09-30T04:58:29;242.80;;;120.83;;
66587;SDS011;53446;50.076;8.198;2023-09-30T05:00:30;250.80;;;121.73;;
66587;SDS011;53446;50.076;8.198;2023-09-30T05:02:30;245.90;;;119.90;;
66587;SDS011;53446;50.076;8.198;2023-09-30T05:04:31;250.87;;;119.87;;
66587;SDS011;53446;50.076;8.198;2023-09-30T05:06:32;242.88;;;115.57;;
66587;SDS011;53446;50.076;8.198;2023-09-30T05:08:32;253.20;;;120.55;;
66587;SDS011;53446;50.076;8.198;2023-09-30T05:10:33;249.20;;;123.43;;
66587;SDS011;53446;50.076;8.198;2023-09-30T05:12:33;238.27;;;114.43;;
66587;SDS011;53446;50.076;8.198;2023-09-30T05:14:34;246.00;;;116.07;;
66587;SDS011;53446;50.076;8.198;2023-09-30T05:16:36;245.13;;;116.95;;
66587;SDS011;53446;50.076;8.198;2023-09-30T05:18:37;248.67;;;116.43;;
66587;SDS011;53446;50.076;8.198;2023-09-30T05:20:38;248.02;;;116.40;;
66587;SDS011;53446;50.076;8.198;2023-09-30T05:22:39;244.40;;;117.13;;
66587;SDS011;53446;50.076;8.198;2023-09-30T05:24:43;245.07;;;115.88;;
66587;SDS011;53446;50.076;8.198;2023-09-30T05:26:43;249.10;;;116.40;;
66587;SDS011;53446;50.076;8.198;2023-09-30T05:28:44;250.90;;;118.50;;
66587;SDS011;53446;50.076;8.198;2023-09-30T05:30:44;248.63;;;117.10;;
66587;SDS011;53446;50.076;8.198;2023-09-30T05:32:45;245.70;;;115.60;;
66587;SDS011;53446;50.076;8.198;2023-09-30T05:34:46;251.00;;;117.00;;
66587;SDS011;53446;50.076;8.198;2023-09-30T05:36:47;251.45;;;116.97;;
66587;SDS011;53446;50.076;8.198;2023-09-30T05:38:48;254.47;;;117.87;;
66587;SDS011;53446;50.076;8.198;2023-09-30T05:40:48;248.80;;;117.07;;
66587;SDS011;53446;50.076;8.198;2023-09-30T05:42:49;250.88;;;118.82;;
66587;SDS011;53446;50.076;8.198;2023-09-30T05:44:50;255.40;;;118.67;;
66587;SDS011;53446;50.076;8.198;2023-09-30T05:46:51;249.18;;;116.97;;
66587;SDS011;53446;50.076;8.198;2023-09-30T05:48:51;251.03;;;116.57;;
66587;SDS011;53446;50.076;8.198;2023-09-30T05:50:51;252.17;;;118.20;;
66587;SDS011;53446;50.076;8.198;2023-09-30T05:52:52;262.33;;;119.57;;
66587;SDS011;53446;50.076;8.198;2023-09-30T05:54:53;249.73;;;118.97;;
66587;SDS011;53446;50.076;8.198;2023-09-30T05:56:54;253.53;;;118.43;;
66587;SDS011;53446;50.076;8.198;2023-09-30T05:58:54;248.32;;;116.63;;
66587;SDS011;53446;50.076;8.198;2023-09-30T06:00:56;254.80;;;118.80;;
66587;SDS011;53446;50.076;8.198;2023-09-30T06:02:56;247.60;;;116.53;;
66587;SDS011;53446;50.076;8.198;2023-09-30T06:04:57;252.13;;;118.32;;
66587;SDS011;53446;50.076;8.198;2023-09-30T06:06:57;248.60;;;115.90;;
66587;SDS011;53446;50.076;8.198;2023-09-30T06:08:58;252.10;;;117.47;;
66587;SDS011;53446;50.076;8.198;2023-09-30T06:10:58;249.45;;;116.35;;
66587;SDS011;53446;50.076;8.198;2023-09-30T06:12:59;253.47;;;116.97;;
66587;SDS011;53446;50.076;8.198;2023-09-30T06:15:00;255.87;;;117.97;;
66587;SDS011;53446;50.076;8.198;2023-09-30T06:17:01;255.18;;;118.82;;
66587;SDS011;53446;50.076;8.198;2023-09-30T06:19:02;252.77;;;116.30;;
66587;SDS011;53446;50.076;8.198;2023-09-30T06:21:04;253.63;;;119.15;;
66587;SDS011;53446;50.076;8.198;2023-09-30T06:23:04;250.93;;;117.80;;
66587;SDS011;53446;50.076;8.198;2023-09-30T06:25:05;251.90;;;119.60;;
66587;SDS011;53446;50.076;8.198;2023-09-30T06:27:05;249.97;;;117.40;;
66587;SDS011;53446;50.076;8.198;2023-09-30T06:29:06;243.03;;;115.53;;
66587;SDS011;53446;50.076;8.198;2023-09-30T06:31:07;241.10;;;113.45;;
66587;SDS011;53446;50.076;8.198;2023-09-30T06:33:08;246.00;;;117.07;;
66587;SDS011;53446;50.076;8.198;2023-09-30T06:35:11;252.27;;;118.93;;
66587;SDS011;53446;50.076;8.198;2023-09-30T06:37:11;250.43;;;119.37;;
66587;SDS011;53446;50.076;8.198;2023-09-30T06:39:12;243.83;;;115.50;;
66587;SDS011;53446;50.076;8.198;2023-09-30T06:41:15;243.77;;;116.70;;
66587;SDS011;53446;50.076;8.198;2023-09-30T06:43:17;246.00;;;116.97;;
66587;SDS011;53446;50.076;8.198;2023-09-30T06:45:17;250.77;;;117.20;;
66587;SDS011;53446;50.076;8.198;2023-09-30T06:47:18;242.30;;;114.88;;
66587;SDS011;53446;50.076;8.198;2023-09-30T06:49:18;238.55;;;115.72;;
66587;SDS011;53446;50.076;8.198;2023-09-30T06:51:18;238.83;;;115.47;;
66587;SDS011;53446;50.076;8.198;2023-09-30T06:53:19;239.83;;;115.67;;
66587;SDS011;53446;50.076;8.198;2023-09-30T06:55:21;239.52;;;114.45;;
66587;SDS011;53446;50.076;8.198;2023-09-30T06:57:21;242.23;;;115.97;;
66587;SDS011;53446;50.076;8.198;2023-09-30T06:59:22;233.37;;;113.67;;
66587;SDS011;53446;50.076;8.198;2023-09-30T07:01:22;246.87;;;117.80;;
66587;SDS011;53446;50.076;8.198;2023-09-30T07:03:22;239.67;;;118.80;;
66587;SDS011;53446;50.076;8.198;2023-09-30T07:05:22;238.20;;;118.27;;
66587;SDS011;53446;50.076;8.198;2023-09-30T07:07:23;235.63;;;117.50;;
66587;SDS011;53446;50.076;8.198;2023-09-30T07:09:23;232.43;;;115.63;;
66587;SDS011;53446;50.076;8.198;2023-09-30T07:11:30;232.67;;;113.33;;
66587;SDS011;53446;50.076;8.198;2023-09-30T07:13:33;233.43;;;114.93;;
66587;SDS011;53446;50.076;8.198;2023-09-30T07:15:34;227.37;;;114.10;;
66587;SDS011;53446;50.076;8.198;2023-09-30T07:17:34;226.20;;;111.90;;
66587;SDS011;53446;50.076;8.198;2023-09-30T07:19:34;226.10;;;112.83;;
66587;SDS011;53446;50.076;8.198;2023-09-30T07:21:36;229.43;;;111.65;;
66587;SDS011;53446;50.076;8.198;2023-09-30T07:23:37;228.88;;;112.10;;
66587;SDS011;53446;50.076;8.198;2023-09-30T07:25:37;227.50;;;114.37;;
66587;SDS011;53446;50.076;8.198;2023-09-30T07:27:38;230.17;;;119.83;;
66587;SDS011;53446;50.076;8.198;2023-09-30T07:29:38;217.33;;;111.17;;
66587;SDS011;53446;50.076;8.198;2023-09-30T07:31:38;207.70;;;106.63;;
66587;SDS011;53446;50.076;8.198;2023-09-30T07:33:39;209.05;;;107.13;;
66587;SDS011;53446;50.076;8.198;2023-09-30T07:35:39;209.30;;;109.43;;
66587;SDS011;53446;50.076;8.198;2023-09-30T07:37:39;206.83;;;107.50;;
66587;SDS011;53446;50.076;8.198;2023-09-30T07:39:40;208.47;;;108.17;;
66587;SDS011;53446;50.076;8.198;2023-09-30T07:41:40;202.75;;;107.70;;
66587;SDS011;53446;50.076;8.198;2023-09-30T07:43:41;204.33;;;108.83;;
66587;SDS011;53446;50.076;8.198;2023-09-30T07:45:41;204.17;;;109.03;;
66587;SDS011;53446;50.076;8.198;2023-09-30T07:47:44;210.82;;;108.68;;
66587;SDS011;53446;50.076;8.198;2023-09-30T07:49:46;204.63;;;108.22;;
66587;SDS011;53446;50.076;8.198;2023-09-30T07:51:46;205.13;;;108.57;;
66587;SDS011;53446;50.076;8.198;2023-09-30T07:53:47;201.20;;;107.10;;
66587;SDS011;53446;50.076;8.198;2023-09-30T07:55:47;202.77;;;108.57;;
66587;SDS011;53446;50.076;8.198;2023-09-30T07:57:47;199.27;;;107.10;;
66587;SDS011;53446;50.076;8.198;2023-09-30T07:59:48;203.33;;;108.03;;
66587;SDS011;53446;50.076;8.198;2023-09-30T08:01:48;196.55;;;103.65;;
66587;SDS011;53446;50.076;8.198;2023-09-30T08:03:49;190.47;;;104.60;;
66587;SDS011;53446;50.076;8.198;2023-09-30T08:05:49;194.20;;;105.80;;
66587;SDS011;53446;50.076;8.198;2023-09-30T08:07:50;187.95;;;103.10;;
66587;SDS011;53446;50.076;8.198;2023-09-30T08:09:50;186.53;;;102.57;;
66587;SDS011;53446;50.076;8.198;2023-09-30T08:11:53;190.30;;;102.00;;
66587;SDS011;53446;50.076;8.198;2023-09-30T08:13:54;187.80;;;103.25;;
66587;SDS011;53446;50.076;8.198;2023-09-30T08:15:54;186.23;;;102.05;;
66587;SDS011;53446;50.076;8.198;2023-09-30T08:17:55;183.48;;;101.45;;
66587;SDS011;53446;50.076;8.198;2023-09-30T08:19:56;182.20;;;100.13;;
66587;SDS011;53446;50.076;8.198;2023-09-30T08:21:56;180.10;;;99.97;;
66587;SDS011;53446;50.076;8.198;2023-09-30T08:23:57;179.37;;;99.57;;
66587;SDS011;53446;50.076;8.198;2023-09-30T08:26:00;175.65;;;98.47;;
66587;SDS011;53446;50.076;8.198;2023-09-30T08:28:00;172.75;;;98.13;;
66587;SDS011;53446;50.076;8.198;2023-09-30T08:30:01;171.70;;;96.30;;
66587;SDS011;53446;50.076;8.198;2023-09-30T08:32:04;172.93;;;96.65;;
66587;SDS011;53446;50.076;8.198;2023-09-30T08:34:05;172.40;;;97.07;;
66587;SDS011;53446;50.076;8.198;2023-09-30T08:36:05;170.77;;;96.07;;
66587;SDS011;53446;50.076;8.198;2023-09-30T08:38:07;168.15;;;95.00;;
66587;SDS011;53446;50.076;8.198;2023-09-30T08:40:08;162.52;;;93.55;;
66587;SDS011;53446;50.076;8.198;2023-09-30T08:42:11;161.48;;;93.80;;
66587;SDS011;53446;50.076;8.198;2023-09-30T08:44:12;171.30;;;94.40;;
66587;SDS011;53446;50.076;8.198;2023-09-30T08:46:12;163.43;;;92.43;;
66587;SDS011;53446;50.076;8.198;2023-09-30T08:48:14;159.60;;;90.60;;
66587;SDS011;53446;50.076;8.198;2023-09-30T08:50:15;157.20;;;92.40;;
66587;SDS011;53446;50.076;8.198;2023-09-30T08:52:16;158.02;;;90.53;;
66587;SDS011;53446;50.076;8.198;2023-09-30T08:54:16;155.05;;;90.90;;
66587;SDS011;53446;50.076;8.198;2023-09-30T08:56:17;155.20;;;90.40;;
66587;SDS011;53446;50.076;8.198;2023-09-30T08:58:19;156.98;;;89.78;;
66587;SDS011;53446;50.076;8.198;2023-09-30T09:00:21;153.02;;;89.70;;
66587;SDS011;53446;50.076;8.198;2023-09-30T09:02:22;154.43;;;90.13;;
66587;SDS011;53446;50.076;8.198;2023-09-30T09:04:22;155.37;;;89.00;;
66587;SDS011;53446;50.076;8.198;2023-09-30T09:06:23;153.17;;;89.20;;
66587;SDS011;53446;50.076;8.198;2023-09-30T09:08:24;151.48;;;87.75;;
66587;SDS011;53446;50.076;8.198;2023-09-30T09:10:25;145.05;;;87.38;;
66587;SDS011;53446;50.076;8.198;2023-09-30T09:12:25;143.45;;;86.05;;
66587;SDS011;53446;50.076;8.198;2023-09-30T09:14:36;144.65;;;86.85;;
66587;SDS011;53446;50.076;8.198;2023-09-30T09:16:51;144.02;;;86.32;;
66587;SDS011;53446;50.076;8.198;2023-09-30T09:18:52;151.02;;;88.93;;
66587;SDS011;53446;50.076;8.198;2023-09-30T09:20:53;146.20;;;87.23;;
66587;SDS011;53446;50.076;8.198;2023-09-30T09:23:17;148.77;;;86.85;;
66587;SDS011;53446;50.076;8.198;2023-09-30T09:25:17;147.33;;;86.80;;
66587;SDS011;53446;50.076;8.198;2023-09-30T09:27:18;148.32;;;87.80;;
66587;SDS011;53446;50.076;8.198;2023-09-30T09:29:20;149.98;;;88.35;;
66587;SDS011;53446;50.076;8.198;2023-09-30T09:31:32;144.45;;;86.85;;
66587;SDS011;53446;50.076;8.198;2023-09-30T09:33:35;140.00;;;85.68;;
66587;SDS011;53446;50.076;8.198;2023-09-30T09:35:37;142.55;;;84.47;;
66587;SDS011;53446;50.076;8.198;2023-09-30T09:37:37;140.47;;;84.63;;
66587;SDS011;53446;50.076;8.198;2023-09-30T09:39:38;135.37;;;82.33;;
66587;SDS011;53446;50.076;8.198;2023-09-30T09:41:59;128.07;;;80.93;;
66587;SDS011;53446;50.076;8.198;2023-09-30T09:44:01;137.98;;;83.35;;
66587;SDS011;53446;50.076;8.198;2023-09-30T09:46:01;128.75;;;80.45;;
66587;SDS011;53446;50.076;8.198;2023-09-30T09:48:07;133.40;;;82.27;;
66587;SDS011;53446;50.076;8.198;2023-09-30T09:50:08;128.73;;;81.35;;
66587;SDS011;53446;50.076;8.198;2023-09-30T09:52:10;121.95;;;80.28;;
66587;SDS011;53446;50.076;8.198;2023-09-30T09:54:11;127.03;;;80.82;;
66587;SDS011;53446;50.076;8.198;2023-09-30T09:56:12;121.10;;;79.40;;
66587;SDS011;53446;50.076;8.198;2023-09-30T09:58:12;115.05;;;75.95;;
66587;SDS011;53446;50.076;8.198;2023-09-30T10:00:15;115.63;;;77.85;;
66587;SDS011;53446;50.076;8.198;2023-09-30T10:02:18;100.97;;;71.18;;
66587;SDS011;53446;50.076;8.198;2023-09-30T10:04:19;99.57;;;70.47;;
66587;SDS011;53446;50.076;8.198;2023-09-30T10:06:19;99.00;;;69.90;;
66587;SDS011;53446;50.076;8.198;2023-09-30T10:08:21;98.10;;;68.10;;
66587;SDS011;53446;50.076;8.198;2023-09-30T10:10:30;102.85;;;70.57;;
66587;SDS011;53446;50.076;8.198;2023-09-30T10:12:35;101.00;;;68.63;;
66587;SDS011;53446;50.076;8.198;2023-09-30T10:14:39;95.95;;;68.88;;
66587;SDS011;53446;50.076;8.198;2023-09-30T10:19:25;94.30;;;67.63;;
66587;SDS011;53446;50.076;8.198;2023-09-30T10:21:07;95.18;;;67.55;;
66587;SDS011;53446;50.076;8.198;2023-09-30T10:23:17;97.28;;;68.10;;
66587;SDS011;53446;50.076;8.198;2023-09-30T10:25:34;90.90;;;66.22;;
66587;SDS011;53446;50.076;8.198;2023-09-30T10:27:36;88.03;;;64.70;;
66587;SDS011;53446;50.076;8.198;2023-09-30T10:29:40;82.55;;;63.00;;
66587;SDS011;53446;50.076;8.198;2023-09-30T10:31:51;89.72;;;65.38;;
66587;SDS011;53446;50.076;8.198;2023-09-30T10:36:01;84.45;;;61.83;;
66587;SDS011;53446;50.076;8.198;2023-09-30T10:40:28;82.93;;;63.10;;
66587;SDS011;53446;50.076;8.198;2023-09-30T10:42:50;80.28;;;62.70;;
66587;SDS011;53446;50.076;8.198;2023-09-30T10:44:51;82.30;;;64.43;;
66587;SDS011;53446;50.076;8.198;2023-09-30T10:46:55;82.40;;;63.43;;
66587;SDS011;53446;50.076;8.198;2023-09-30T10:48:57;75.65;;;60.33;;
66587;SDS011;53446;50.076;8.198;2023-09-30T10:51:18;84.40;;;62.10;;
66587;SDS011;53446;50.076;8.198;2023-09-30T10:53:22;80.05;;;62.17;;
66587;SDS011;53446;50.076;8.198;2023-09-30T10:55:22;80.43;;;62.63;;
66587;SDS011;53446;50.076;8.198;2023-09-30T10:57:26;89.15;;;69.47;;
66587;SDS011;53446;50.076;8.198;2023-09-30T10:59:30;75.25;;;61.42;;
66587;SDS011;53446;50.076;8.198;2023-09-30T11:01:32;72.40;;;60.17;;
66587;SDS011;53446;50.076;8.198;2023-09-30T11:03:36;65.13;;;54.38;;
66587;SDS011;53446;50.076;8.198;2023-09-30T11:05:37;50.73;;;45.03;;
66587;SDS011;53446;50.076;8.198;2023-09-30T11:07:37;37.97;;;31.50;;
66587;SDS011;53446;50.076;8.198;2023-09-30T11:09:39;31.17;;;20.08;;
66587;SDS011;53446;50.076;8.198;2023-09-30T11:11:41;27.25;;;16.23;;
66587;SDS011;53446;50.076;8.198;2023-09-30T11:13:43;28.55;;;15.10;;
66587;SDS011;53446;50.076;8.198;2023-09-30T11:15:44;26.57;;;13.23;;
66587;SDS011;53446;50.076;8.198;2023-09-30T11:17:45;26.75;;;12.73;;
66587;SDS011;53446;50.076;8.198;2023-09-30T11:19:46;25.17;;;12.63;;
66587;SDS011;53446;50.076;8.198;2023-09-30T11:21:48;24.63;;;12.13;;
66587;SDS011;53446;50.076;8.198;2023-09-30T11:23:49;25.25;;;11.80;;
66587;SDS011;53446;50.076;8.198;2023-09-30T11:25:50;24.07;;;11.83;;
66587;SDS011;53446;50.076;8.198;2023-09-30T11:27:50;24.50;;;11.63;;
66587;SDS011;53446;50.076;8.198;2023-09-30T11:29:50;22.03;;;11.03;;
66587;SDS011;53446;50.076;8.198;2023-09-30T11:31:51;22.30;;;11.45;;
66587;SDS011;53446;50.076;8.198;2023-09-30T11:33:55;22.43;;;10.70;;
66587;SDS011;53446;50.076;8.198;2023-09-30T11:38:00;20.95;;;10.15;;
66587;SDS011;53446;50.076;8.198;2023-09-30T11:40:11;22.00;;;11.03;;
66587;SDS011;53446;50.076;8.198;2023-09-30T11:42:15;18.95;;;9.57;;
66587;SDS011;53446;50.076;8.198;2023-09-30T11:44:20;18.55;;;9.07;;